Time;durP1;ratioP1;P1;durP2;ratioP2;P2;SDS_P1;SDS_P2;PMS_P1;PMS_P2;Temp;Humidity;BMP_temperature;BMP_pressure;BME280_temperature;BME280_humidity;BME280_pressure;Samples;Min_cycle;Max_cycle;Signal;HPM_P1;HPM_P2
2020/12/27 00:01:50;;;;;;;10.33;8.37;;;;;;;;;;5049294;28;20467;-79
2020/12/27 00:04:16;;;;;;;10.20;7.78;;;;;;;;;;5051717;28;20754;-77
2020/12/27 00:06:44;;;;;;;9.73;8.32;;;;;;;;;;5034806;28;20375;-78
2020/12/27 00:09:10;;;;;;;9.68;8.15;;;;;;;;;;5052434;28;20385;-78
2020/12/27 00:11:36;;;;;;;9.35;7.95;;;;;;;;;;5050775;28;20370;-77
2020/12/27 00:14:02;;;;;;;9.63;7.65;;;;;;;;;;5071199;28;20402;-78
2020/12/27 00:16:28;;;;;;;8.25;7.45;;;;;;;;;;5052898;28;20380;-80
2020/12/27 00:18:54;;;;;;;8.90;7.97;;;;;;;;;;5054326;28;20377;-78
2020/12/27 00:21:20;;;;;;;10.00;8.30;;;;;;;;;;5054511;28;20753;-78
2020/12/27 00:23:46;;;;;;;10.55;8.35;;;;;;;;;;5070855;28;20400;-78
2020/12/27 00:26:13;;;;;;;10.98;8.00;;;;;;;;;;5053973;28;20440;-79
2020/12/27 00:28:39;;;;;;;8.75;7.85;;;;;;;;;;5071892;28;20706;-78
2020/12/27 00:31:05;;;;;;;8.80;7.68;;;;;;;;;;5053786;28;20370;-79
2020/12/27 00:33:31;;;;;;;8.50;7.43;;;;;;;;;;5053879;28;20367;-78
2020/12/27 00:35:58;;;;;;;9.82;7.40;;;;;;;;;;5054160;28;20400;-78
2020/12/27 00:38:24;;;;;;;10.88;8.23;;;;;;;;;;5072346;28;20442;-77
2020/12/27 00:40:50;;;;;;;9.48;8.10;;;;;;;;;;5053772;28;20365;-80
2020/12/27 00:43:16;;;;;;;8.98;7.85;;;;;;;;;;5053815;28;20362;-78
2020/12/27 00:45:42;;;;;;;8.95;7.55;;;;;;;;;;5052411;28;20402;-78
2020/12/27 00:48:08;;;;;;;9.50;7.95;;;;;;;;;;5067888;28;20445;-77
2020/12/27 00:50:34;;;;;;;10.30;8.18;;;;;;;;;;5041239;28;20368;-79
2020/12/27 00:53:01;;;;;;;9.57;7.55;;;;;;;;;;5042240;28;20369;-79
2020/12/27 00:55:27;;;;;;;8.20;7.13;;;;;;;;;;5043795;28;20368;-76
2020/12/27 00:57:53;;;;;;;10.30;7.90;;;;;;;;;;5059990;28;20691;-76
2020/12/27 01:00:19;;;;;;;8.85;7.38;;;;;;;;;;5042533;28;20378;-76
2020/12/27 01:02:44;;;;;;;8.38;7.50;;;;;;;;;;5061361;28;20371;-77
2020/12/27 01:05:11;;;;;;;8.97;7.67;;;;;;;;;;5041234;28;20419;-78
2020/12/27 01:07:37;;;;;;;8.82;7.93;;;;;;;;;;5042778;28;20377;-81
2020/12/27 01:10:04;;;;;;;8.77;6.97;;;;;;;;;;5043374;28;20364;-78
2020/12/27 01:12:30;;;;;;;8.10;6.68;;;;;;;;;;5040520;28;20368;-78
2020/12/27 01:14:56;;;;;;;6.80;6.13;;;;;;;;;;5060599;28;21167;-80
2020/12/27 01:17:25;;;;;;;10.05;7.35;;;;;;;;;;5040859;28;20368;-79
2020/12/27 01:19:50;;;;;;;8.10;7.00;;;;;;;;;;5042980;28;20397;-78
2020/12/27 01:22:17;;;;;;;8.65;7.45;;;;;;;;;;5041813;28;20368;-78
2020/12/27 01:24:43;;;;;;;8.60;7.55;;;;;;;;;;5041745;28;20397;-77
2020/12/27 01:27:09;;;;;;;8.55;7.63;;;;;;;;;;5061452;28;20366;-79
2020/12/27 01:29:34;;;;;;;10.70;8.75;;;;;;;;;;5041235;28;20731;-80
2020/12/27 01:32:01;;;;;;;10.57;8.38;;;;;;;;;;5042059;28;20366;-78
2020/12/27 01:34:30;;;;;;;9.63;8.55;;;;;;;;;;5049165;28;20398;-79
2020/12/27 01:36:56;;;;;;;10.15;9.15;;;;;;;;;;5053120;28;20373;-78
2020/12/27 01:39:22;;;;;;;11.15;9.02;;;;;;;;;;5052915;28;20729;-78
2020/12/27 01:41:51;;;;;;;10.32;9.23;;;;;;;;;;5071020;28;20362;-77
2020/12/27 01:44:17;;;;;;;11.18;9.05;;;;;;;;;;5052864;28;20398;-77
2020/12/27 01:46:44;;;;;;;12.73;9.43;;;;;;;;;;5053261;28;20453;-78
2020/12/27 01:49:11;;;;;;;11.10;9.52;;;;;;;;;;5052644;28;20374;-78
2020/12/27 01:51:37;;;;;;;12.23;9.18;;;;;;;;;;5053071;28;20409;-78
2020/12/27 01:54:04;;;;;;;9.90;8.88;;;;;;;;;;5070888;28;20373;-79
2020/12/27 01:56:33;;;;;;;9.40;8.40;;;;;;;;;;5052748;28;20373;-78
2020/12/27 01:59:03;;;;;;;11.17;9.03;;;;;;;;;;5052640;28;20908;-77
2020/12/27 02:01:30;;;;;;;9.53;8.53;;;;;;;;;;5070744;28;20698;-77
2020/12/27 02:03:56;;;;;;;8.88;7.97;;;;;;;;;;5052690;28;20444;-77
2020/12/27 02:06:22;;;;;;;10.85;8.40;;;;;;;;;;5052841;28;20366;-77
2020/12/27 02:08:49;;;;;;;9.75;8.02;;;;;;;;;;5052586;28;20377;-77
2020/12/27 02:11:16;;;;;;;8.63;7.68;;;;;;;;;;5070254;28;20362;-79
2020/12/27 02:13:52;;;;;;;10.07;7.55;;;;;;;;;;5070755;28;20388;-80
2020/12/27 02:16:22;;;;;;;9.63;7.25;;;;;;;;;;5070466;28;20366;-78
2020/12/27 02:18:49;;;;;;;9.68;7.72;;;;;;;;;;5052623;28;20464;-79
2020/12/27 02:21:15;;;;;;;8.40;7.60;;;;;;;;;;5070077;28;20359;-78
2020/12/27 02:23:41;;;;;;;10.43;8.07;;;;;;;;;;5052301;28;20396;-78
2020/12/27 02:26:08;;;;;;;8.43;7.20;;;;;;;;;;5052597;28;20444;-78
2020/12/27 02:28:34;;;;;;;8.38;6.90;;;;;;;;;;5070614;28;20366;-78
2020/12/27 02:31:00;;;;;;;8.50;7.28;;;;;;;;;;5070334;28;20445;-78
2020/12/27 02:33:26;;;;;;;10.52;7.72;;;;;;;;;;5052284;28;20374;-78
2020/12/27 02:35:52;;;;;;;8.95;7.28;;;;;;;;;;5052332;28;20374;-78
2020/12/27 02:38:18;;;;;;;7.57;6.78;;;;;;;;;;5070130;28;20499;-78
2020/12/27 02:40:44;;;;;;;8.05;7.20;;;;;;;;;;5052183;28;20454;-79
2020/12/27 02:43:14;;;;;;;8.20;6.70;;;;;;;;;;5052332;28;20373;-78
2020/12/27 02:45:41;;;;;;;9.65;7.20;;;;;;;;;;5052287;28;20398;-77
2020/12/27 02:48:07;;;;;;;8.00;7.13;;;;;;;;;;5052328;28;20362;-78
2020/12/27 02:50:33;;;;;;;8.95;7.50;;;;;;;;;;5052061;28;20453;-77
2020/12/27 02:52:59;;;;;;;8.75;7.55;;;;;;;;;;5069944;28;20437;-78
2020/12/27 02:55:25;;;;;;;9.52;7.45;;;;;;;;;;5052244;28;20375;-77
2020/12/27 02:57:51;;;;;;;8.02;7.22;;;;;;;;;;5070581;28;20355;-78
2020/12/27 03:00:17;;;;;;;8.68;7.45;;;;;;;;;;5051713;28;20393;-78
2020/12/27 03:02:43;;;;;;;9.48;8.15;;;;;;;;;;5069897;28;20361;-79
2020/12/27 03:05:09;;;;;;;8.90;7.70;;;;;;;;;;5069809;28;20423;-77
2020/12/27 03:07:35;;;;;;;9.38;8.23;;;;;;;;;;5052024;28;20378;-77
2020/12/27 03:10:01;;;;;;;9.57;8.38;;;;;;;;;;5069684;28;20483;-77
2020/12/27 03:12:27;;;;;;;10.23;9.05;;;;;;;;;;5052175;28;20865;-77
2020/12/27 03:14:53;;;;;;;10.27;8.77;;;;;;;;;;5069990;28;20373;-78
2020/12/27 03:17:19;;;;;;;10.77;9.38;;;;;;;;;;5052073;28;20373;-77
2020/12/27 03:19:45;;;;;;;10.02;9.02;;;;;;;;;;5069625;28;20370;-77
2020/12/27 03:22:11;;;;;;;9.52;8.52;;;;;;;;;;5051795;28;20370;-79
2020/12/27 03:24:37;;;;;;;10.37;8.33;;;;;;;;;;5052082;28;20433;-78
2020/12/27 03:27:03;;;;;;;10.88;9.05;;;;;;;;;;5070144;28;20369;-78
2020/12/27 03:29:29;;;;;;;10.43;8.85;;;;;;;;;;5051677;28;20366;-77
2020/12/27 03:31:55;;;;;;;9.32;8.32;;;;;;;;;;5069913;28;20369;-78
2020/12/27 03:34:21;;;;;;;8.90;7.70;;;;;;;;;;5069878;28;20963;-78
2020/12/27 03:36:47;;;;;;;9.02;7.45;;;;;;;;;;5055547;28;20363;-78
2020/12/27 03:39:14;;;;;;;8.17;7.37;;;;;;;;;;5073146;28;20757;-78
2020/12/27 03:41:40;;;;;;;9.05;7.32;;;;;;;;;;5073724;28;20368;-77
2020/12/27 03:44:06;;;;;;;10.07;7.35;;;;;;;;;;5073618;28;21133;-77
2020/12/27 03:46:32;;;;;;;7.40;6.60;;;;;;;;;;5073417;28;20478;-78
2020/12/27 03:48:58;;;;;;;7.45;6.55;;;;;;;;;;5073227;28;20363;-79
2020/12/27 03:51:25;;;;;;;7.60;6.75;;;;;;;;;;5055286;28;20751;-79
2020/12/27 03:53:51;;;;;;;9.05;7.00;;;;;;;;;;5055418;28;20382;-78
2020/12/27 03:56:17;;;;;;;7.97;7.17;;;;;;;;;;5055474;28;20464;-77
2020/12/27 03:58:43;;;;;;;8.27;7.00;;;;;;;;;;5073212;28;20354;-78
2020/12/27 04:01:09;;;;;;;9.18;6.95;;;;;;;;;;5054851;28;20402;-78
2020/12/27 04:03:35;;;;;;;7.45;6.70;;;;;;;;;;5054726;28;20457;-77
2020/12/27 04:06:02;;;;;;;7.70;6.90;;;;;;;;;;5073235;28;20581;-77
2020/12/27 04:08:28;;;;;;;7.65;6.63;;;;;;;;;;5055084;28;20370;-77
2020/12/27 04:10:54;;;;;;;9.00;7.07;;;;;;;;;;5054814;28;20998;-77
2020/12/27 04:13:20;;;;;;;7.57;6.72;;;;;;;;;;5055070;28;20486;-78
2020/12/27 04:15:46;;;;;;;8.13;6.47;;;;;;;;;;5054982;28;20463;-77
2020/12/27 04:18:12;;;;;;;9.23;6.70;;;;;;;;;;5054951;28;20366;-79
2020/12/27 04:20:38;;;;;;;8.45;7.07;;;;;;;;;;5072801;28;20358;-78
2020/12/27 04:23:04;;;;;;;7.97;6.80;;;;;;;;;;5054796;28;21226;-77
2020/12/27 04:25:30;;;;;;;8.40;6.95;;;;;;;;;;5054554;28;20444;-78
2020/12/27 04:27:56;;;;;;;7.57;6.70;;;;;;;;;;5054909;28;20363;-77
2020/12/27 04:30:22;;;;;;;7.72;6.50;;;;;;;;;;5072345;28;20448;-78
2020/12/27 04:32:48;;;;;;;8.77;6.63;;;;;;;;;;5054525;28;20849;-78
2020/12/27 04:35:14;;;;;;;10.52;6.53;;;;;;;;;;5072361;28;20440;-78
2020/12/27 04:37:40;;;;;;;7.85;6.75;;;;;;;;;;5054510;28;20455;-78
2020/12/27 04:40:06;;;;;;;8.07;6.60;;;;;;;;;;5072226;28;20439;-78
2020/12/27 04:42:32;;;;;;;10.20;7.30;;;;;;;;;;5054052;28;20937;-79
2020/12/27 04:44:59;;;;;;;7.90;7.03;;;;;;;;;;5054162;28;20416;-77
2020/12/27 04:47:25;;;;;;;7.97;6.78;;;;;;;;;;5070755;28;20362;-78
2020/12/27 04:49:51;;;;;;;10.10;7.13;;;;;;;;;;5054147;28;20369;-78
2020/12/27 04:52:20;;;;;;;8.23;7.05;;;;;;;;;;5071873;28;20826;-78
2020/12/27 04:54:47;;;;;;;7.22;6.40;;;;;;;;;;5071965;28;20367;-78
2020/12/27 04:57:13;;;;;;;8.85;6.75;;;;;;;;;;5054167;28;20461;-77
2020/12/27 04:59:41;;;;;;;8.38;6.63;;;;;;;;;;5071734;28;20445;-80
2020/12/27 05:02:07;;;;;;;9.20;7.13;;;;;;;;;;5053653;28;20376;-78
2020/12/27 05:04:33;;;;;;;9.37;7.30;;;;;;;;;;5053726;28;20497;-77
2020/12/27 05:06:59;;;;;;;10.32;7.22;;;;;;;;;;5053975;28;20856;-78
2020/12/27 05:09:25;;;;;;;9.30;7.60;;;;;;;;;;5053691;28;20373;-78
2020/12/27 05:11:52;;;;;;;9.02;7.20;;;;;;;;;;5053616;28;20869;-77
2020/12/27 05:14:21;;;;;;;8.73;7.50;;;;;;;;;;5053753;28;20372;-78
2020/12/27 05:16:50;;;;;;;10.48;7.72;;;;;;;;;;5053505;28;20482;-78
2020/12/27 05:19:16;;;;;;;9.88;7.43;;;;;;;;;;5053237;28;20399;-77
2020/12/27 05:21:42;;;;;;;10.93;8.57;;;;;;;;;;5053518;28;20362;-78
2020/12/27 05:24:09;;;;;;;11.23;7.82;;;;;;;;;;5053412;28;20374;-79
2020/12/27 05:26:37;;;;;;;11.93;8.63;;;;;;;;;;5053600;28;20397;-77
2020/12/27 05:29:03;;;;;;;11.32;8.40;;;;;;;;;;5053314;28;20373;-78
2020/12/27 05:31:35;;;;;;;11.82;8.65;;;;;;;;;;5053263;28;20469;-78
2020/12/27 05:34:01;;;;;;;12.30;9.02;;;;;;;;;;5071816;28;20454;-78
2020/12/27 05:36:27;;;;;;;9.95;8.82;;;;;;;;;;5053578;28;20457;-78
2020/12/27 05:38:53;;;;;;;12.55;9.27;;;;;;;;;;5071218;28;20468;-78
2020/12/27 05:41:26;;;;;;;10.35;8.95;;;;;;;;;;5071029;28;20351;-77
2020/12/27 05:43:59;;;;;;;11.20;8.90;;;;;;;;;;5053052;28;20888;-78
2020/12/27 05:46:25;;;;;;;12.23;9.73;;;;;;;;;;5071139;28;20522;-77
2020/12/27 05:48:54;;;;;;;10.60;9.27;;;;;;;;;;5071021;28;20936;-78
2020/12/27 05:51:21;;;;;;;12.27;9.93;;;;;;;;;;5052905;28;20381;-78
2020/12/27 05:53:49;;;;;;;13.30;9.27;;;;;;;;;;5053086;28;20879;-78
2020/12/27 05:56:17;;;;;;;12.00;9.20;;;;;;;;;;5052947;28;20412;-78
2020/12/27 05:58:44;;;;;;;10.80;9.68;;;;;;;;;;5070707;28;20473;-77
2020/12/27 06:01:14;;;;;;;10.95;9.75;;;;;;;;;;5070578;28;20363;-79
2020/12/27 06:03:54;;;;;;;10.93;9.45;;;;;;;;;;5070596;28;20354;-78
2020/12/27 06:06:34;;;;;;;11.30;9.07;;;;;;;;;;5070734;28;20477;-78
2020/12/27 06:09:04;;;;;;;11.30;9.63;;;;;;;;;;5070821;28;20365;-78
2020/12/27 06:11:52;;;;;;;12.30;9.57;;;;;;;;;;5070775;28;20441;-79
2020/12/27 06:14:36;;;;;;;10.63;9.15;;;;;;;;;;5052774;28;20373;-78
2020/12/27 06:17:12;;;;;;;11.25;9.45;;;;;;;;;;5070621;28;20365;-78
2020/12/27 06:19:56;;;;;;;12.70;9.47;;;;;;;;;;5070508;28;20369;-78
2020/12/27 06:22:30;;;;;;;12.57;10.02;;;;;;;;;;5052648;28;20370;-79
2020/12/27 06:24:57;;;;;;;10.52;9.02;;;;;;;;;;5052712;28;20448;-78
2020/12/27 06:27:25;;;;;;;12.88;9.52;;;;;;;;;;5070589;28;20733;-78
2020/12/27 06:29:55;;;;;;;12.57;9.60;;;;;;;;;;5070299;28;20433;-78
2020/12/27 06:32:23;;;;;;;12.55;10.30;;;;;;;;;;5052603;28;20729;-78
2020/12/27 06:34:49;;;;;;;12.02;9.15;;;;;;;;;;5052523;28;20363;-77
2020/12/27 06:37:16;;;;;;;10.93;9.73;;;;;;;;;;5052454;28;20358;-78
2020/12/27 06:39:45;;;;;;;10.95;9.48;;;;;;;;;;5052182;28;20729;-79
2020/12/27 06:42:13;;;;;;;10.93;8.70;;;;;;;;;;5070243;28;20394;-80
2020/12/27 06:44:43;;;;;;;12.48;9.63;;;;;;;;;;5052277;28;20435;-77
2020/12/27 06:47:10;;;;;;;9.50;8.50;;;;;;;;;;5052527;28;20394;-78
2020/12/27 06:49:36;;;;;;;11.20;8.73;;;;;;;;;;5069903;28;20362;-79
2020/12/27 06:52:22;;;;;;;10.63;8.32;;;;;;;;;;5070085;28;20845;-79
2020/12/27 06:54:49;;;;;;;10.17;8.43;;;;;;;;;;5070310;28;20403;-77
2020/12/27 06:57:33;;;;;;;11.15;8.55;;;;;;;;;;5070554;28;20445;-79
2020/12/27 07:00:18;;;;;;;11.32;8.93;;;;;;;;;;5052186;28;20449;-77
2020/12/27 07:02:44;;;;;;;11.23;8.52;;;;;;;;;;5069977;28;20366;-78
2020/12/27 07:05:11;;;;;;;10.80;8.27;;;;;;;;;;5069814;28;20625;-77
2020/12/27 07:07:47;;;;;;;10.25;8.68;;;;;;;;;;5051951;28;20427;-78
2020/12/27 07:10:16;;;;;;;9.90;8.32;;;;;;;;;;5071372;28;20903;-78
2020/12/27 07:12:42;;;;;;;10.73;8.00;;;;;;;;;;5056081;28;20370;-77
2020/12/27 07:15:11;;;;;;;9.00;7.55;;;;;;;;;;5056096;28;20370;-77
2020/12/27 07:17:37;;;;;;;10.47;7.90;;;;;;;;;;5055966;28;20366;-78
2020/12/27 07:20:15;;;;;;;11.02;8.32;;;;;;;;;;5073825;28;20365;-78
2020/12/27 07:22:41;;;;;;;10.45;8.35;;;;;;;;;;5074167;28;20714;-77
2020/12/27 07:25:11;;;;;;;11.90;8.30;;;;;;;;;;5055904;28;20406;-78
2020/12/27 07:27:39;;;;;;;11.13;8.02;;;;;;;;;;5073816;28;20833;-79
2020/12/27 07:30:06;;;;;;;10.57;7.97;;;;;;;;;;5055556;28;20362;-77
2020/12/27 07:32:34;;;;;;;8.70;7.70;;;;;;;;;;5055540;28;20445;-80
2020/12/27 07:35:00;;;;;;;10.77;7.90;;;;;;;;;;5073860;28;20920;-78
2020/12/27 07:37:27;;;;;;;9.73;7.68;;;;;;;;;;5055794;28;20384;-78
2020/12/27 07:39:57;;;;;;;9.53;7.87;;;;;;;;;;5073237;28;20885;-78
2020/12/27 07:42:35;;;;;;;9.38;8.05;;;;;;;;;;5055474;28;20370;-78
2020/12/27 07:45:12;;;;;;;10.60;7.60;;;;;;;;;;5055194;28;20825;-78
2020/12/27 07:47:39;;;;;;;11.20;8.07;;;;;;;;;;5055870;28;20362;-80
2020/12/27 07:50:09;;;;;;;11.07;7.60;;;;;;;;;;5073394;28;20779;-80
2020/12/27 07:52:41;;;;;;;8.35;7.43;;;;;;;;;;5073331;28;20729;-80
2020/12/27 07:55:07;;;;;;;9.93;7.47;;;;;;;;;;5073012;28;20453;-79
2020/12/27 07:57:33;;;;;;;9.50;6.97;;;;;;;;;;5073248;28;20370;-78
2020/12/27 08:00:06;;;;;;;7.78;6.82;;;;;;;;;;5072955;28;20415;-78
2020/12/27 08:02:32;;;;;;;8.95;6.60;;;;;;;;;;5072879;28;20433;-78
2020/12/27 08:05:03;;;;;;;10.80;6.78;;;;;;;;;;5054920;28;20895;-78
2020/12/27 08:07:29;;;;;;;7.10;5.70;;;;;;;;;;5073010;28;20455;-78
2020/12/27 08:09:55;;;;;;;8.25;6.07;;;;;;;;;;5054786;28;20363;-80
2020/12/27 08:12:22;;;;;;;7.05;5.65;;;;;;;;;;5055049;28;20378;-79
2020/12/27 08:14:48;;;;;;;6.63;5.20;;;;;;;;;;5054935;28;20465;-79
2020/12/27 08:17:15;;;;;;;7.25;4.85;;;;;;;;;;5072736;28;20363;-79
2020/12/27 08:19:41;;;;;;;6.32;4.50;;;;;;;;;;5072614;28;20366;-78
2020/12/27 08:22:07;;;;;;;5.72;4.72;;;;;;;;;;5054438;28;20369;-79
2020/12/27 08:24:33;;;;;;;7.97;4.72;;;;;;;;;;5072782;28;20394;-78
2020/12/27 08:26:59;;;;;;;5.40;4.20;;;;;;;;;;5072516;28;20354;-78
2020/12/27 08:29:26;;;;;;;5.60;4.97;;;;;;;;;;5054336;28;20370;-80
2020/12/27 08:31:53;;;;;;;7.18;4.68;;;;;;;;;;5054510;28;20362;-78
2020/12/27 08:34:20;;;;;;;7.10;4.28;;;;;;;;;;5054529;28;20444;-78
2020/12/27 08:36:56;;;;;;;6.50;4.20;;;;;;;;;;5072514;28;20362;-80
2020/12/27 08:39:25;;;;;;;5.32;4.25;;;;;;;;;;5054019;28;20455;-79
2020/12/27 08:41:57;;;;;;;6.10;3.88;;;;;;;;;;5054431;28;20771;-79
2020/12/27 08:44:23;;;;;;;5.10;3.67;;;;;;;;;;5072093;28;20382;-79
2020/12/27 08:46:51;;;;;;;4.50;3.63;;;;;;;;;;5054238;28;20950;-78
2020/12/27 08:49:32;;;;;;;5.75;3.90;;;;;;;;;;5071869;28;20370;-78
2020/12/27 08:52:05;;;;;;;4.45;3.50;;;;;;;;;;5071998;28;20366;-77
2020/12/27 08:54:32;;;;;;;6.05;3.35;;;;;;;;;;5054094;28;20638;-79
2020/12/27 08:56:58;;;;;;;7.30;3.55;;;;;;;;;;5072164;28;20366;-79
2020/12/27 08:59:24;;;;;;;4.57;3.55;;;;;;;;;;5054215;28;20394;-79
2020/12/27 09:01:50;;;;;;;4.82;3.35;;;;;;;;;;5071928;28;20817;-79
2020/12/27 09:04:22;;;;;;;5.47;3.35;;;;;;;;;;5053471;28;20469;-78
2020/12/27 09:06:57;;;;;;;4.20;3.10;;;;;;;;;;5054223;28;20412;-79
2020/12/27 09:09:24;;;;;;;5.95;3.20;;;;;;;;;;5071707;28;20365;-79
2020/12/27 09:11:50;;;;;;;4.90;3.28;;;;;;;;;;5071915;28;20362;-79
2020/12/27 09:14:35;;;;;;;5.00;3.13;;;;;;;;;;5053871;28;20363;-79
2020/12/27 09:17:03;;;;;;;4.88;3.00;;;;;;;;;;5053692;28;20397;-80
2020/12/27 09:19:32;;;;;;;3.65;3.05;;;;;;;;;;5053492;28;20362;-80
2020/12/27 09:21:58;;;;;;;6.60;3.40;;;;;;;;;;5071454;28;20358;-81
2020/12/27 09:24:24;;;;;;;3.47;3.17;;;;;;;;;;5071920;28;20358;-81
2020/12/27 09:26:50;;;;;;;4.28;2.90;;;;;;;;;;5053771;28;20861;-80
2020/12/27 09:29:18;;;;;;;3.70;3.10;;;;;;;;;;5053029;28;20366;-80
2020/12/27 09:31:44;;;;;;;6.32;3.50;;;;;;;;;;5052396;28;20378;-84
2020/12/27 09:34:10;;;;;;;7.47;3.63;;;;;;;;;;5041617;28;20459;-80
2020/12/27 09:36:37;;;;;;;4.32;3.13;;;;;;;;;;5044183;28;20945;-81
2020/12/27 09:39:04;;;;;;;4.38;3.30;;;;;;;;;;5059320;28;20376;-80
2020/12/27 09:41:35;;;;;;;3.45;3.13;;;;;;;;;;5041452;28;20372;-82
2020/12/27 09:44:04;;;;;;;4.40;3.33;;;;;;;;;;5044419;28;20373;-81
2020/12/27 09:46:40;;;;;;;6.32;3.47;;;;;;;;;;5043682;28;21173;-81
2020/12/27 09:49:20;;;;;;;5.55;3.45;;;;;;;;;;5041708;28;20436;-83
2020/12/27 09:51:46;;;;;;;4.03;3.22;;;;;;;;;;5070591;28;20429;-81
2020/12/27 09:54:16;;;;;;;4.93;3.30;;;;;;;;;;5043586;28;20880;-81
2020/12/27 09:56:43;;;;;;;5.43;3.38;;;;;;;;;;5026673;28;20384;-83
2020/12/27 09:59:10;;;;;;;3.88;3.30;;;;;;;;;;5038824;28;20366;-82
2020/12/27 10:01:36;;;;;;;3.78;3.38;;;;;;;;;;5037337;28;20546;-80
2020/12/27 10:04:02;;;;;;;4.00;3.50;;;;;;;;;;5042970;28;20375;-81
2020/12/27 10:06:28;;;;;;;4.13;3.72;;;;;;;;;;5059013;28;20395;-79
2020/12/27 10:08:54;;;;;;;5.38;3.70;;;;;;;;;;5041803;28;20359;-81
2020/12/27 10:11:20;;;;;;;5.15;3.67;;;;;;;;;;5041285;28;20400;-78
2020/12/27 10:13:46;;;;;;;5.70;3.80;;;;;;;;;;5042219;28;20374;-80
2020/12/27 10:16:12;;;;;;;5.18;3.55;;;;;;;;;;5059434;28;20372;-81
2020/12/27 10:18:38;;;;;;;5.43;3.88;;;;;;;;;;5040772;28;21133;-81
2020/12/27 10:21:07;;;;;;;5.05;3.95;;;;;;;;;;5041985;28;20484;-80
2020/12/27 10:23:33;;;;;;;5.90;4.30;;;;;;;;;;5041008;28;20385;-82
2020/12/27 10:25:59;;;;;;;4.65;3.95;;;;;;;;;;5043139;28;20811;-82
2020/12/27 10:28:25;;;;;;;5.20;3.60;;;;;;;;;;5059252;28;20725;-82
2020/12/27 10:30:51;;;;;;;4.95;3.80;;;;;;;;;;5070145;28;20390;-82
2020/12/27 10:33:17;;;;;;;7.57;3.80;;;;;;;;;;5061720;28;20780;-81
2020/12/27 10:35:43;;;;;;;4.38;3.58;;;;;;;;;;5044177;28;20388;-83
2020/12/27 10:38:09;;;;;;;5.85;4.18;;;;;;;;;;5043985;28;20373;-79
2020/12/27 10:40:38;;;;;;;4.85;3.80;;;;;;;;;;5060042;28;20454;-81
2020/12/27 10:43:04;;;;;;;5.07;3.88;;;;;;;;;;5061700;28;20459;-81
2020/12/27 10:45:30;;;;;;;5.33;3.50;;;;;;;;;;5042131;28;21002;-83
2020/12/27 10:47:56;;;;;;;5.40;3.78;;;;;;;;;;5056643;28;20377;-81
2020/12/27 10:50:22;;;;;;;4.95;4.07;;;;;;;;;;5039799;28;20871;-79
2020/12/27 10:52:48;;;;;;;6.10;3.65;;;;;;;;;;5042237;28;20374;-83
2020/12/27 10:55:14;;;;;;;5.75;4.30;;;;;;;;;;5059046;28;20738;-80
2020/12/27 10:57:40;;;;;;;6.17;4.10;;;;;;;;;;5059719;28;20397;-79
2020/12/27 11:00:06;;;;;;;5.50;4.00;;;;;;;;;;5041113;28;20407;-82
2020/12/27 11:02:32;;;;;;;5.20;3.80;;;;;;;;;;5041429;28;20382;-82
2020/12/27 11:04:58;;;;;;;4.22;3.83;;;;;;;;;;5041389;28;20465;-79
2020/12/27 11:07:24;;;;;;;5.75;4.15;;;;;;;;;;5040318;28;20380;-83
2020/12/27 11:09:50;;;;;;;5.20;3.85;;;;;;;;;;5060262;28;20457;-80
2020/12/27 11:12:17;;;;;;;5.65;3.72;;;;;;;;;;5040535;28;20415;-81
2020/12/27 11:14:43;;;;;;;5.10;4.07;;;;;;;;;;5026724;28;20390;-80
2020/12/27 11:17:09;;;;;;;5.60;4.20;;;;;;;;;;5039674;28;20433;-81
2020/12/27 11:19:35;;;;;;;4.10;3.70;;;;;;;;;;5042325;28;20378;-81
2020/12/27 11:22:01;;;;;;;6.28;4.05;;;;;;;;;;5061595;28;20741;-80
2020/12/27 11:24:27;;;;;;;5.93;4.13;;;;;;;;;;5059709;28;20912;-81
2020/12/27 11:26:56;;;;;;;4.33;3.73;;;;;;;;;;5039961;28;20895;-81
2020/12/27 11:29:22;;;;;;;5.10;4.03;;;;;;;;;;5058235;28;20889;-80
2020/12/27 11:31:52;;;;;;;5.60;3.85;;;;;;;;;;5039463;28;20874;-82
2020/12/27 11:34:18;;;;;;;5.10;4.17;;;;;;;;;;5058166;28;20360;-81
2020/12/27 11:36:47;;;;;;;4.70;3.47;;;;;;;;;;5055666;28;20379;-81
2020/12/27 11:39:13;;;;;;;4.72;3.58;;;;;;;;;;5073533;28;20382;-81
2020/12/27 11:41:39;;;;;;;4.55;3.35;;;;;;;;;;5041161;28;20398;-81
2020/12/27 11:44:05;;;;;;;6.07;3.78;;;;;;;;;;5044686;28;20958;-82
2020/12/27 11:46:33;;;;;;;5.78;3.80;;;;;;;;;;5038779;28;20417;-83
2020/12/27 11:48:59;;;;;;;5.20;3.67;;;;;;;;;;5036685;28;20849;-81
2020/12/27 11:51:25;;;;;;;4.90;3.67;;;;;;;;;;5037633;28;20433;-81
2020/12/27 11:53:51;;;;;;;4.63;3.75;;;;;;;;;;5041094;28;20411;-81
2020/12/27 11:56:18;;;;;;;4.22;3.60;;;;;;;;;;5048557;28;20386;-81
2020/12/27 11:58:44;;;;;;;4.67;3.83;;;;;;;;;;5065680;28;20355;-82
2020/12/27 12:01:13;;;;;;;5.28;3.85;;;;;;;;;;5042466;28;20886;-82
2020/12/27 12:03:42;;;;;;;5.30;3.67;;;;;;;;;;5043452;28;20759;-80
2020/12/27 12:06:09;;;;;;;6.05;3.70;;;;;;;;;;5039780;28;20411;-84
2020/12/27 12:08:35;;;;;;;5.32;3.60;;;;;;;;;;5053036;28;20475;-81
2020/12/27 12:11:01;;;;;;;5.68;4.03;;;;;;;;;;5052492;28;20419;-81
2020/12/27 12:13:27;;;;;;;5.10;4.07;;;;;;;;;;5036954;28;20367;-80
2020/12/27 12:15:55;;;;;;;4.22;3.53;;;;;;;;;;5039951;28;20776;-79
2020/12/27 12:18:21;;;;;;;4.55;3.55;;;;;;;;;;5038071;28;20901;-80
2020/12/27 12:20:47;;;;;;;4.77;3.70;;;;;;;;;;5060203;28;20391;-81
2020/12/27 12:23:13;;;;;;;4.35;3.33;;;;;;;;;;5039755;28;20455;-81
2020/12/27 12:25:40;;;;;;;4.75;3.28;;;;;;;;;;5037790;28;20427;-81
2020/12/27 12:28:06;;;;;;;4.18;3.72;;;;;;;;;;5048409;28;20370;-79
2020/12/27 12:30:32;;;;;;;4.25;3.45;;;;;;;;;;5057295;28;20441;-82
2020/12/27 12:32:59;;;;;;;4.07;3.67;;;;;;;;;;5041724;28;20370;-81
2020/12/27 12:35:25;;;;;;;4.18;3.13;;;;;;;;;;5063875;28;20653;-79
2020/12/27 12:37:51;;;;;;;5.07;3.08;;;;;;;;;;5040686;28;20364;-80
2020/12/27 12:40:17;;;;;;;4.77;3.40;;;;;;;;;;5042788;28;20765;-79
2020/12/27 12:42:43;;;;;;;4.20;3.08;;;;;;;;;;5067994;28;20363;-79
2020/12/27 12:45:09;;;;;;;3.65;2.95;;;;;;;;;;5044418;28;20398;-80
2020/12/27 12:47:35;;;;;;;3.60;3.00;;;;;;;;;;5036756;28;20439;-81
2020/12/27 12:50:01;;;;;;;3.60;3.20;;;;;;;;;;5034838;28;20389;-80
2020/12/27 12:52:28;;;;;;;5.05;2.92;;;;;;;;;;5039141;28;21214;-80
2020/12/27 12:54:54;;;;;;;3.08;2.65;;;;;;;;;;5041873;28;20419;-81
2020/12/27 12:57:20;;;;;;;3.65;2.90;;;;;;;;;;5041131;28;20411;-82
2020/12/27 12:59:46;;;;;;;3.35;2.92;;;;;;;;;;5057989;28;20468;-82
2020/12/27 13:02:12;;;;;;;3.23;2.77;;;;;;;;;;5041760;28;20366;-80
2020/12/27 13:04:38;;;;;;;2.97;2.47;;;;;;;;;;5056813;28;20453;-82
2020/12/27 13:07:05;;;;;;;3.27;2.70;;;;;;;;;;5037559;28;24144;-80
2020/12/27 13:09:31;;;;;;;3.13;2.50;;;;;;;;;;5041020;28;20381;-82
2020/12/27 13:11:58;;;;;;;3.70;2.70;;;;;;;;;;5040838;28;20518;-81
2020/12/27 13:14:24;;;;;;;2.92;2.63;;;;;;;;;;5057190;28;20894;-80
2020/12/27 13:16:51;;;;;;;3.63;2.70;;;;;;;;;;5041489;28;20376;-81
2020/12/27 13:19:17;;;;;;;3.40;3.10;;;;;;;;;;5038519;28;20437;-81
2020/12/27 13:21:43;;;;;;;3.70;3.15;;;;;;;;;;5039083;28;20372;-80
2020/12/27 13:24:09;;;;;;;3.03;2.72;;;;;;;;;;5038916;28;20370;-81
2020/12/27 13:26:35;;;;;;;3.58;2.70;;;;;;;;;;5039726;28;20396;-81
2020/12/27 13:29:01;;;;;;;2.90;2.50;;;;;;;;;;5039693;28;20483;-81
2020/12/27 13:31:28;;;;;;;4.18;2.42;;;;;;;;;;5055161;28;21709;-80
2020/12/27 13:33:54;;;;;;;2.90;2.60;;;;;;;;;;5043907;28;20389;-80
2020/12/27 13:36:22;;;;;;;3.65;2.20;;;;;;;;;;5053500;28;20817;-81
2020/12/27 13:38:48;;;;;;;2.67;2.45;;;;;;;;;;5044896;28;20372;-88
2020/12/27 13:41:15;;;;;;;3.10;2.37;;;;;;;;;;5040267;28;20876;-80
2020/12/27 13:43:45;;;;;;;3.75;2.55;;;;;;;;;;5071168;28;20378;-82
2020/12/27 13:46:15;;;;;;;3.40;2.78;;;;;;;;;;5050094;28;20904;-82
2020/12/27 13:48:43;;;;;;;3.10;2.35;;;;;;;;;;5047460;28;20382;-81
2020/12/27 13:51:26;;;;;;;3.83;2.33;;;;;;;;;;5049096;28;20368;-81
2020/12/27 13:53:52;;;;;;;2.92;2.45;;;;;;;;;;5066043;28;20365;-79
2020/12/27 13:56:27;;;;;;;3.67;2.38;;;;;;;;;;5066779;28;20395;-83
2020/12/27 13:58:53;;;;;;;2.60;2.20;;;;;;;;;;5037363;28;20498;-81
2020/12/27 14:01:22;;;;;;;3.27;2.30;;;;;;;;;;5037063;28;20454;-83
2020/12/27 14:03:52;;;;;;;2.75;2.22;;;;;;;;;;5042491;28;20872;-82
2020/12/27 14:06:25;;;;;;;2.50;2.00;;;;;;;;;;5038717;28;20406;-80
2020/12/27 14:08:59;;;;;;;3.00;2.15;;;;;;;;;;5044454;28;20376;-80
2020/12/27 14:11:25;;;;;;;2.95;2.30;;;;;;;;;;5047253;28;20370;-82
2020/12/27 14:13:52;;;;;;;2.53;2.10;;;;;;;;;;5049996;28;20370;-81
2020/12/27 14:16:18;;;;;;;3.20;2.58;;;;;;;;;;5040843;28;20376;-80
2020/12/27 14:18:44;;;;;;;2.67;2.40;;;;;;;;;;5057432;28;21031;-82
2020/12/27 14:21:15;;;;;;;2.65;2.30;;;;;;;;;;5054178;28;20363;-81
2020/12/27 14:23:45;;;;;;;3.58;2.80;;;;;;;;;;5038051;28;20605;-79
2020/12/27 14:26:12;;;;;;;5.20;2.80;;;;;;;;;;5055667;28;20995;-81
2020/12/27 14:28:38;;;;;;;2.75;2.40;;;;;;;;;;5057393;28;20356;-81
2020/12/27 14:31:06;;;;;;;3.25;2.40;;;;;;;;;;5033451;28;20413;-81
2020/12/27 14:33:32;;;;;;;2.90;2.60;;;;;;;;;;5062697;28;20365;-81
2020/12/27 14:36:04;;;;;;;3.87;2.80;;;;;;;;;;5062691;28;20858;-82
2020/12/27 14:38:32;;;;;;;6.50;3.03;;;;;;;;;;5041464;28;20371;-81
2020/12/27 14:40:58;;;;;;;3.83;2.80;;;;;;;;;;5045987;28;20446;-82
2020/12/27 14:43:24;;;;;;;3.55;2.80;;;;;;;;;;5063285;28;20767;-84